Avola, Canada
Current Conditions -  °F | °C
As of 10:00 AM on Thursday 23 Oct 2014 (Local Time) from CYRV Reporting Station
Overcast Overcast  
Wind Chill: 48°   Ceiling: 1200
Heat Index: 48°   Visibility: 9mi
Dew Point: 46°   Wind: 3mph
Humidity: 93%   Direction: 300°WNW
Pressure: 29.72"   Gusts: NA
Location:  51.78°N, 119.32°W
Report Text: CYRV 231700Z AUTO 30003KT 290V360 9SM SCT007 BKN012 OVC018 09/08 A2972 RMK SLP072
Loading
Personal Weather Stations






























Interactive Weather Map
Tropical Storm Tracking
New forecast layout! Learn more

10-Day Weather Forecast

Advertisements
Track Severe Weather on mobile